createdAt,value
2022-10-08T00:01:07.091Z,71.90
2022-10-08T00:03:37.725Z,72.31
2022-10-08T00:06:12.427Z,72.56
2022-10-08T00:08:41.675Z,72.80
2022-10-08T00:11:11.183Z,72.97
2022-10-08T00:13:40.992Z,73.38
2022-10-08T00:16:12.660Z,73.81
2022-10-08T00:18:44.858Z,73.54
2022-10-08T00:21:16.543Z,73.69
2022-10-08T00:23:44.709Z,73.27
2022-10-08T00:26:11.506Z,73.19
2022-10-08T00:28:41.966Z,73.08
2022-10-08T00:31:11.483Z,73.29
2022-10-08T00:33:38.561Z,73.18
2022-10-08T00:36:08.160Z,73.11
2022-10-08T00:38:35.859Z,73.27
2022-10-08T00:41:05.618Z,73.03
2022-10-08T00:43:45.501Z,73.34
2022-10-08T00:46:25.315Z,73.01
2022-10-08T00:49:11.580Z,72.32
2022-10-08T00:51:44.103Z,72.72
2022-10-08T00:54:12.986Z,72.54
2022-10-08T00:56:41.295Z,72.39
2022-10-08T00:59:10.979Z,72.62
2022-10-08T01:01:41.191Z,72.64
2022-10-08T01:04:09.333Z,73.05
2022-10-08T01:06:42.630Z,73.01
2022-10-08T01:09:19.100Z,73.16
2022-10-08T01:12:18.605Z,73.01
2022-10-08T01:15:01.762Z,73.18
2022-10-08T01:17:37.498Z,73.12
2022-10-08T01:20:13.283Z,73.05
2022-10-08T01:22:52.348Z,72.51
2022-10-08T01:25:35.527Z,72.85
2022-10-08T01:28:19.792Z,72.80
2022-10-08T01:30:59.578Z,72.50
2022-10-08T01:33:35.723Z,72.80
2022-10-08T01:36:05.164Z,72.64
2022-10-08T01:38:35.744Z,72.36
2022-10-08T01:41:08.235Z,72.45
2022-10-08T01:43:40.436Z,72.51
2022-10-08T01:46:22.381Z,72.05
2022-10-08T01:48:51.998Z,72.37
2022-10-08T01:51:27.339Z,72.47
2022-10-08T01:53:55.309Z,72.05
2022-10-08T01:56:27.047Z,72.42
2022-10-08T01:59:03.737Z,72.79
2022-10-08T02:02:01.467Z,72.92
2022-10-08T02:04:33.840Z,72.23
2022-10-08T02:07:15.348Z,71.83
2022-10-08T02:09:48.037Z,71.61
2022-10-08T02:12:14.938Z,72.11
2022-10-08T02:14:47.104Z,71.86
2022-10-08T02:17:33.046Z,72.15
2022-10-08T02:20:02.833Z,72.56
2022-10-08T02:22:45.601Z,72.60
2022-10-08T02:25:24.524Z,72.59
2022-10-08T02:28:28.326Z,72.62
2022-10-08T02:31:04.908Z,71.53
2022-10-08T02:33:37.889Z,71.38
2022-10-08T02:36:08.172Z,70.86
2022-10-08T02:38:41.261Z,71.15
2022-10-08T02:41:11.385Z,70.88
2022-10-08T02:43:45.227Z,70.83
2022-10-08T02:46:17.736Z,70.94
2022-10-08T02:48:51.087Z,71.38
2022-10-08T02:51:18.772Z,70.84
2022-10-08T02:53:47.576Z,71.14
2022-10-08T02:56:37.724Z,70.96
2022-10-08T02:59:05.592Z,71.11
2022-10-08T03:01:48.808Z,70.91
2022-10-08T03:04:26.039Z,71.60
2022-10-08T03:06:54.157Z,73.49
2022-10-08T03:09:22.781Z,74.08
2022-10-08T03:11:50.327Z,75.48
2022-10-08T03:14:20.297Z,77.11
2022-10-08T03:16:48.174Z,77.26
2022-10-08T03:19:16.722Z,77.47
2022-10-08T03:21:45.534Z,78.73
2022-10-08T03:24:14.521Z,79.30
2022-10-08T03:26:41.715Z,79.69
2022-10-08T03:29:09.171Z,80.26
2022-10-08T03:31:36.250Z,80.34
2022-10-08T03:34:02.992Z,80.32
2022-10-08T03:36:30.433Z,80.44
2022-10-08T03:38:57.472Z,80.31
2022-10-08T03:41:25.503Z,81.02
2022-10-08T03:43:52.337Z,81.06
2022-10-08T03:46:19.340Z,81.05
2022-10-08T03:48:49.683Z,81.88
2022-10-08T03:51:18.374Z,82.55
2022-10-08T03:53:45.912Z,82.60
2022-10-08T03:56:15.465Z,82.89
2022-10-08T03:58:43.021Z,82.93
2022-10-08T04:01:17.791Z,82.77
2022-10-08T04:03:45.451Z,82.94
2022-10-08T04:06:12.696Z,83.18
2022-10-08T04:08:40.092Z,83.47
2022-10-08T04:11:10.110Z,83.50
2022-10-08T04:13:38.125Z,83.57
2022-10-08T04:16:10.856Z,83.33
2022-10-08T04:18:38.034Z,82.04
2022-10-08T04:21:08.491Z,81.45
2022-10-08T04:23:37.912Z,81.50
2022-10-08T04:26:05.329Z,81.60
2022-10-08T04:28:37.547Z,81.41
2022-10-08T04:31:08.625Z,81.69
2022-10-08T04:33:36.437Z,81.59
2022-10-08T04:36:12.063Z,82.03
2022-10-08T04:38:39.331Z,82.44
2022-10-08T04:41:06.797Z,82.33
2022-10-08T04:43:35.335Z,82.56
2022-10-08T04:46:03.183Z,83.11
2022-10-08T04:48:30.362Z,83.00
2022-10-08T04:50:59.172Z,83.09
2022-10-08T04:53:26.965Z,83.25
2022-10-08T04:55:55.167Z,82.87
2022-10-08T04:58:23.339Z,83.04
2022-10-08T05:00:50.727Z,83.37
2022-10-08T05:03:17.801Z,83.40
2022-10-08T05:05:46.459Z,83.74
2022-10-08T05:08:13.871Z,83.68
2022-10-08T05:10:48.366Z,83.59
2022-10-08T05:13:15.389Z,83.52
2022-10-08T05:15:42.458Z,83.17
2022-10-08T05:18:10.289Z,82.78
2022-10-08T05:20:38.040Z,82.43
2022-10-08T05:23:05.115Z,81.93
2022-10-08T05:25:33.482Z,81.53
2022-10-08T05:28:01.573Z,80.91
2022-10-08T05:30:28.425Z,81.21
2022-10-08T05:32:55.433Z,81.63
2022-10-08T05:35:22.447Z,81.77
2022-10-08T05:37:49.279Z,82.26
2022-10-08T05:40:16.336Z,82.74
2022-10-08T05:42:43.427Z,82.71
2022-10-08T05:45:10.875Z,82.66
2022-10-08T05:47:38.270Z,82.55
2022-10-08T05:50:06.026Z,82.57
2022-10-08T05:52:33.021Z,81.98
2022-10-08T05:55:00.453Z,81.84
2022-10-08T05:57:28.146Z,81.36
2022-10-08T05:59:55.060Z,81.15
2022-10-08T06:02:22.318Z,80.50
2022-10-08T06:04:50.391Z,80.13
2022-10-08T06:07:17.318Z,79.36
2022-10-08T06:09:45.253Z,78.76
2022-10-08T06:12:13.914Z,77.99
2022-10-08T06:14:41.187Z,77.73
2022-10-08T06:17:08.034Z,76.94
2022-10-08T06:19:37.336Z,76.44
2022-10-08T06:22:05.125Z,76.42
2022-10-08T06:24:32.476Z,76.01
2022-10-08T06:26:59.547Z,75.58
2022-10-08T06:29:26.802Z,75.72
2022-10-08T06:31:53.821Z,75.25
2022-10-08T06:34:22.011Z,74.66
2022-10-08T06:36:50.215Z,74.85
2022-10-08T06:39:18.452Z,74.06
2022-10-08T06:41:45.510Z,73.62
2022-10-08T06:44:14.566Z,74.05
2022-10-08T06:46:42.459Z,73.83
2022-10-08T06:49:10.435Z,74.47
2022-10-08T06:51:38.350Z,74.23
2022-10-08T06:54:08.299Z,74.14
2022-10-08T06:56:37.500Z,73.31
2022-10-08T06:59:06.598Z,73.85
2022-10-08T07:01:35.806Z,73.36
2022-10-08T07:04:05.120Z,73.54
2022-10-08T07:06:36.509Z,73.77
2022-10-08T07:09:04.923Z,74.02
2022-10-08T07:11:33.668Z,73.37
2022-10-08T07:14:00.987Z,73.39
2022-10-08T07:16:28.576Z,73.76
2022-10-08T07:18:58.084Z,73.92
2022-10-08T07:21:25.635Z,73.92
2022-10-08T07:23:52.953Z,74.05
2022-10-08T07:26:25.263Z,73.32
2022-10-08T07:28:55.346Z,72.75
2022-10-08T07:31:27.117Z,72.99
2022-10-08T07:33:54.273Z,73.85
2022-10-08T07:36:23.265Z,74.02
2022-10-08T07:39:03.860Z,73.28
2022-10-08T07:41:32.024Z,72.69
2022-10-08T07:44:00.841Z,72.90
2022-10-08T07:46:29.545Z,71.99
2022-10-08T07:48:59.211Z,71.88
2022-10-08T07:51:28.038Z,72.17
2022-10-08T07:54:00.240Z,71.80
2022-10-08T07:56:30.319Z,71.49
2022-10-08T07:58:58.857Z,71.47
2022-10-08T08:01:28.533Z,71.58
2022-10-08T08:04:07.306Z,70.96
2022-10-08T08:06:41.608Z,70.75
2022-10-08T08:09:09.163Z,71.45
2022-10-08T08:11:36.523Z,71.86
2022-10-08T08:14:03.826Z,70.55
2022-10-08T08:16:30.759Z,70.32
2022-10-08T08:19:01.301Z,69.69
2022-10-08T08:21:36.386Z,69.63
2022-10-08T08:24:06.218Z,69.26
2022-10-08T08:26:36.037Z,69.55
2022-10-08T08:29:08.887Z,69.32
2022-10-08T08:31:39.400Z,68.75
2022-10-08T08:34:12.807Z,69.06
2022-10-08T08:36:43.913Z,68.29
2022-10-08T08:39:19.758Z,68.44
2022-10-08T08:41:52.948Z,67.83
2022-10-08T08:44:39.254Z,67.52
2022-10-08T08:47:08.308Z,67.99
2022-10-08T08:49:49.821Z,68.00
2022-10-08T08:52:19.432Z,67.21
2022-10-08T08:54:49.562Z,65.87
2022-10-08T08:57:30.231Z,65.50
2022-10-08T09:00:03.751Z,65.37
2022-10-08T09:02:51.562Z,65.17
2022-10-08T09:05:20.204Z,65.58
2022-10-08T09:07:56.684Z,65.50
2022-10-08T09:10:39.209Z,65.10
2022-10-08T09:13:14.368Z,64.90
2022-10-08T09:15:43.005Z,65.18
2022-10-08T09:18:13.101Z,64.71
2022-10-08T09:20:40.788Z,63.55
2022-10-08T09:23:15.320Z,62.69
2022-10-08T09:25:44.540Z,63.04
2022-10-08T09:28:11.570Z,62.85
2022-10-08T09:30:41.468Z,61.30
2022-10-08T09:33:16.329Z,61.93
2022-10-08T09:35:44.963Z,61.44
2022-10-08T09:38:27.006Z,61.14
2022-10-08T09:41:20.349Z,60.83
2022-10-08T09:44:15.867Z,60.32
2022-10-08T09:46:43.198Z,60.13
2022-10-08T09:49:32.468Z,59.86
2022-10-08T09:52:05.857Z,60.16
2022-10-08T09:55:22.570Z,60.20
2022-10-08T09:58:00.475Z,60.02
2022-10-08T10:00:35.351Z,58.78
2022-10-08T10:03:05.646Z,58.67
2022-10-08T10:05:35.015Z,57.84
2022-10-08T10:08:02.362Z,57.96
2022-10-08T10:10:40.451Z,58.34
2022-10-08T10:13:27.964Z,57.39
2022-10-08T10:16:40.197Z,56.97
2022-10-08T10:19:15.736Z,58.34
2022-10-08T10:22:04.873Z,58.79
2022-10-08T10:24:50.293Z,59.07
2022-10-08T10:27:40.544Z,58.27
2022-10-08T10:30:17.136Z,57.17
2022-10-08T10:32:56.139Z,56.32
2022-10-08T10:35:28.427Z,56.39
2022-10-08T10:38:09.486Z,56.23
2022-10-08T10:40:42.455Z,55.68
2022-10-08T10:43:52.981Z,53.79
2022-10-08T10:46:25.254Z,54.45
2022-10-08T10:48:52.253Z,54.19
2022-10-08T10:51:50.553Z,53.44
2022-10-08T10:54:23.008Z,54.14
2022-10-08T10:56:56.969Z,53.53
2022-10-08T11:00:03.647Z,53.54
2022-10-08T11:02:42.177Z,52.23
2022-10-08T11:05:33.139Z,53.14
2022-10-08T11:08:30.557Z,53.04
2022-10-08T11:11:09.664Z,52.28
2022-10-08T11:13:55.260Z,52.05
2022-10-08T11:16:37.556Z,51.72
2022-10-08T11:19:11.635Z,52.07
2022-10-08T11:21:48.091Z,52.58
2022-10-08T11:24:23.956Z,52.74
2022-10-08T11:27:12.804Z,52.24
2022-10-08T11:29:52.231Z,52.26
2022-10-08T11:32:20.479Z,52.81
2022-10-08T11:35:00.950Z,53.79
2022-10-08T11:37:27.791Z,51.74
2022-10-08T11:40:10.550Z,50.48
2022-10-08T11:42:48.512Z,51.49
2022-10-08T11:45:25.819Z,51.25
2022-10-08T11:47:54.902Z,50.98
2022-10-08T11:50:32.245Z,51.05
2022-10-08T11:53:21.026Z,51.01
2022-10-08T11:55:57.163Z,51.14
2022-10-08T11:58:32.647Z,50.93
2022-10-08T12:01:07.891Z,51.44
2022-10-08T12:03:41.043Z,50.05
2022-10-08T12:06:35.891Z,50.06
2022-10-08T12:09:07.758Z,50.02
2022-10-08T12:11:43.392Z,49.32
2022-10-08T12:14:14.431Z,49.73
2022-10-08T12:16:47.593Z,49.20
2022-10-08T12:19:33.087Z,49.91
2022-10-08T12:22:02.065Z,47.88
2022-10-08T12:24:38.238Z,47.98
2022-10-08T12:27:17.762Z,48.39
2022-10-08T12:30:12.112Z,48.42
2022-10-08T12:32:42.273Z,49.10
2022-10-08T12:35:35.922Z,47.89
2022-10-08T12:38:13.775Z,48.03
2022-10-08T12:40:56.941Z,48.14
2022-10-08T12:43:51.635Z,47.90
2022-10-08T12:46:40.009Z,48.23
2022-10-08T12:49:25.169Z,47.83
2022-10-08T12:52:04.566Z,47.38
2022-10-08T12:54:32.985Z,48.42
2022-10-08T12:57:07.176Z,48.09
2022-10-08T12:59:34.235Z,47.92
2022-10-08T13:02:01.439Z,47.67
2022-10-08T13:04:33.990Z,47.29
2022-10-08T13:07:19.231Z,46.75
2022-10-08T13:09:46.225Z,47.35
2022-10-08T13:12:13.077Z,47.78
2022-10-08T13:14:40.462Z,48.46
2022-10-08T13:17:30.292Z,48.20
2022-10-08T13:20:17.019Z,47.67
2022-10-08T13:22:44.827Z,47.76
2022-10-08T13:25:35.269Z,47.60
2022-10-08T13:28:16.131Z,48.11
2022-10-08T13:30:46.953Z,47.40
2022-10-08T13:33:20.670Z,47.87
2022-10-08T13:35:52.333Z,47.31
2022-10-08T13:38:27.088Z,47.81
2022-10-08T13:40:58.762Z,48.21
2022-10-08T13:43:26.439Z,48.74
2022-10-08T13:45:53.385Z,48.24
2022-10-08T13:48:20.434Z,47.98
2022-10-08T13:50:50.282Z,48.57
2022-10-08T13:53:22.182Z,47.93
2022-10-08T13:55:50.463Z,47.81
2022-10-08T13:58:19.825Z,47.57
2022-10-08T14:00:47.892Z,47.44
2022-10-08T14:03:15.135Z,47.77
2022-10-08T14:05:45.423Z,48.27
2022-10-08T14:08:28.273Z,48.30
2022-10-08T14:10:58.307Z,48.04
2022-10-08T14:13:25.692Z,47.68
2022-10-08T14:15:52.741Z,47.18
2022-10-08T14:18:19.716Z,47.75
2022-10-08T14:20:50.632Z,48.15
2022-10-08T14:23:17.607Z,48.31
2022-10-08T14:25:44.490Z,48.37
2022-10-08T14:28:11.331Z,48.56
2022-10-08T14:30:38.121Z,48.57
2022-10-08T14:33:10.277Z,48.15
2022-10-08T14:35:38.188Z,48.40
2022-10-08T14:38:05.045Z,48.35
2022-10-08T14:40:31.969Z,48.61
2022-10-08T14:42:58.859Z,48.85
2022-10-08T14:45:26.025Z,48.90
2022-10-08T14:47:52.846Z,48.91
2022-10-08T14:50:19.778Z,49.11
2022-10-08T14:52:47.283Z,49.41
2022-10-08T14:55:14.854Z,49.88
2022-10-08T14:57:41.818Z,50.05
2022-10-08T15:00:09.197Z,50.02
2022-10-08T15:02:36.304Z,50.73
2022-10-08T15:05:03.319Z,51.03
2022-10-08T15:07:30.876Z,51.69
2022-10-08T15:09:57.934Z,52.76
2022-10-08T15:12:25.077Z,54.16
2022-10-08T15:14:51.883Z,54.81
2022-10-08T15:17:18.678Z,55.72
2022-10-08T15:19:45.628Z,56.70
2022-10-08T15:22:12.869Z,56.96
2022-10-08T15:24:39.814Z,57.85
2022-10-08T15:27:06.756Z,57.90
2022-10-08T15:29:33.561Z,57.75
2022-10-08T15:32:00.457Z,58.60
2022-10-08T15:34:27.437Z,59.13
2022-10-08T15:36:56.032Z,59.67
2022-10-08T15:39:22.993Z,59.39
2022-10-08T15:41:54.446Z,59.71
2022-10-08T15:44:28.977Z,59.88
2022-10-08T15:47:02.566Z,60.31
2022-10-08T15:49:31.299Z,60.87
2022-10-08T15:51:58.640Z,61.06
2022-10-08T15:54:25.859Z,61.21
2022-10-08T15:56:52.685Z,61.63
2022-10-08T15:59:19.683Z,61.70
2022-10-08T16:01:46.539Z,62.00
2022-10-08T16:04:14.395Z,62.17
2022-10-08T16:06:47.797Z,62.50
2022-10-08T16:09:16.707Z,62.53
2022-10-08T16:11:44.482Z,62.62
2022-10-08T16:14:14.431Z,62.65
2022-10-08T16:16:42.551Z,62.85
2022-10-08T16:19:18.368Z,62.77
2022-10-08T16:21:47.435Z,62.84
2022-10-08T16:24:15.361Z,62.97
2022-10-08T16:26:43.586Z,63.64
2022-10-08T16:29:13.017Z,63.32
2022-10-08T16:31:41.720Z,63.65
2022-10-08T16:34:13.721Z,63.86
2022-10-08T16:36:40.975Z,64.27
2022-10-08T16:39:10.063Z,64.46
2022-10-08T16:41:38.014Z,64.34
2022-10-08T16:44:12.675Z,64.58
2022-10-08T16:46:42.632Z,64.27
2022-10-08T16:49:28.176Z,64.40
2022-10-08T16:52:05.544Z,64.46
2022-10-08T16:54:33.253Z,64.83
2022-10-08T16:57:00.870Z,64.85
2022-10-08T16:59:29.843Z,65.18
2022-10-08T17:01:59.684Z,65.24
2022-10-08T17:04:29.403Z,65.15
2022-10-08T17:06:56.816Z,65.24
2022-10-08T17:09:23.742Z,65.29
2022-10-08T17:11:50.725Z,65.42
2022-10-08T17:14:17.541Z,65.30
2022-10-08T17:16:48.966Z,65.17
2022-10-08T17:19:18.026Z,65.05
2022-10-08T17:21:45.161Z,64.97
2022-10-08T17:24:12.764Z,64.93
2022-10-08T17:26:40.332Z,65.14
2022-10-08T17:29:10.243Z,65.01
2022-10-08T17:31:38.151Z,65.62
2022-10-08T17:34:06.336Z,65.80
2022-10-08T17:36:36.331Z,65.59
2022-10-08T17:39:05.824Z,65.82
2022-10-08T17:41:37.953Z,65.43
2022-10-08T17:44:07.279Z,65.91
2022-10-08T17:46:39.932Z,65.85
2022-10-08T17:49:06.915Z,65.82
2022-10-08T17:51:34.435Z,66.10
2022-10-08T17:54:04.167Z,65.99
2022-10-08T17:56:31.636Z,65.97
2022-10-08T17:58:58.960Z,65.93
2022-10-08T18:01:29.918Z,65.76
2022-10-08T18:04:03.051Z,65.61
2022-10-08T18:06:31.290Z,65.76
2022-10-08T18:09:01.124Z,65.80
2022-10-08T18:11:30.677Z,65.19
2022-10-08T18:13:58.189Z,65.48
2022-10-08T18:16:28.064Z,65.46
2022-10-08T18:18:55.340Z,65.40
2022-10-08T18:21:22.565Z,65.23
2022-10-08T18:23:49.951Z,66.02
2022-10-08T18:26:20.932Z,66.28
2022-10-08T18:28:56.462Z,66.64
2022-10-08T18:31:26.907Z,66.46
2022-10-08T18:34:00.199Z,66.47
2022-10-08T18:36:30.260Z,66.98
2022-10-08T18:39:03.230Z,66.89
2022-10-08T18:41:32.927Z,66.98
2022-10-08T18:44:00.737Z,66.83
2022-10-08T18:46:28.537Z,66.62
2022-10-08T18:48:55.974Z,66.52
2022-10-08T18:51:25.827Z,66.45
2022-10-08T18:53:55.050Z,66.73
2022-10-08T18:56:28.733Z,67.02
2022-10-08T18:59:01.755Z,67.11
2022-10-08T19:01:34.665Z,66.61
2022-10-08T19:04:04.418Z,67.06
2022-10-08T19:06:35.013Z,66.86
2022-10-08T19:09:03.282Z,67.35
2022-10-08T19:11:33.735Z,67.84
2022-10-08T19:14:01.686Z,67.49
2022-10-08T19:16:29.141Z,67.79
2022-10-08T19:18:57.179Z,67.72
2022-10-08T19:21:26.463Z,67.70
2022-10-08T19:23:54.152Z,67.48
2022-10-08T19:26:21.017Z,67.67
2022-10-08T19:28:50.969Z,68.13
2022-10-08T19:31:19.413Z,68.04
2022-10-08T19:33:58.147Z,67.92
2022-10-08T19:36:27.204Z,68.30
2022-10-08T19:38:59.364Z,68.33
2022-10-08T19:41:27.681Z,68.77
2022-10-08T19:43:56.448Z,68.72
2022-10-08T19:46:24.434Z,68.91
2022-10-08T19:48:56.501Z,68.68
2022-10-08T19:51:24.792Z,68.63
2022-10-08T19:53:52.288Z,68.56
2022-10-08T19:56:20.632Z,68.80
2022-10-08T19:58:49.690Z,68.81
2022-10-08T20:01:20.324Z,68.73
2022-10-08T20:03:47.669Z,68.61
2022-10-08T20:06:21.700Z,68.96
2022-10-08T20:08:50.283Z,68.78
2022-10-08T20:11:19.226Z,68.90
2022-10-08T20:13:48.039Z,68.64
2022-10-08T20:16:18.081Z,68.53
2022-10-08T20:18:53.365Z,68.99
2022-10-08T20:21:21.480Z,69.04
2022-10-08T20:23:48.715Z,69.12
2022-10-08T20:26:23.127Z,69.31
2022-10-08T20:28:53.118Z,70.04
2022-10-08T20:31:27.184Z,70.45
2022-10-08T20:33:59.027Z,70.74
2022-10-08T20:36:26.230Z,70.83
2022-10-08T20:38:53.722Z,70.50
2022-10-08T20:41:23.487Z,70.43
2022-10-08T20:43:55.933Z,70.68
2022-10-08T20:46:23.015Z,70.35
2022-10-08T20:48:49.877Z,70.38
2022-10-08T20:51:20.033Z,70.31
2022-10-08T20:53:55.409Z,70.16
2022-10-08T20:56:22.635Z,70.10
2022-10-08T20:58:49.775Z,69.87
2022-10-08T21:01:24.779Z,70.09
2022-10-08T21:03:52.791Z,69.63
2022-10-08T21:06:22.437Z,69.38
2022-10-08T21:08:51.396Z,69.24
2022-10-08T21:11:21.005Z,68.98
2022-10-08T21:13:48.507Z,69.16
2022-10-08T21:16:18.080Z,69.35
2022-10-08T21:18:49.495Z,68.97
2022-10-08T21:21:16.922Z,69.09
2022-10-08T21:23:45.206Z,69.23
2022-10-08T21:26:15.095Z,69.26
2022-10-08T21:28:44.170Z,68.89
2022-10-08T21:31:11.915Z,68.84
2022-10-08T21:33:40.742Z,69.15
2022-10-08T21:36:11.993Z,69.33
2022-10-08T21:38:38.858Z,69.60
2022-10-08T21:41:12.530Z,69.66
2022-10-08T21:43:40.920Z,69.78
2022-10-08T21:46:10.397Z,69.85
2022-10-08T21:48:38.255Z,70.21
2022-10-08T21:51:08.426Z,70.21
2022-10-08T21:53:37.514Z,70.11
2022-10-08T21:56:10.672Z,69.93
2022-10-08T21:58:39.904Z,69.82
2022-10-08T22:01:08.630Z,69.95
2022-10-08T22:03:35.491Z,69.91
2022-10-08T22:06:04.638Z,70.19
2022-10-08T22:08:31.838Z,70.22
2022-10-08T22:10:58.829Z,70.07
2022-10-08T22:13:25.783Z,70.08
2022-10-08T22:15:57.123Z,70.30
2022-10-08T22:18:25.326Z,70.33
2022-10-08T22:20:52.959Z,69.98
2022-10-08T22:23:20.635Z,69.92
2022-10-08T22:26:01.522Z,69.96
2022-10-08T22:28:29.018Z,70.07
2022-10-08T22:30:58.799Z,70.20
2022-10-08T22:33:25.960Z,70.40
2022-10-08T22:35:52.909Z,70.43
2022-10-08T22:38:19.728Z,70.34
2022-10-08T22:40:46.583Z,70.04
2022-10-08T22:43:13.390Z,70.11
2022-10-08T22:45:41.560Z,70.32
2022-10-08T22:48:08.500Z,70.13
2022-10-08T22:50:36.099Z,70.01
2022-10-08T22:53:02.872Z,69.94
2022-10-08T22:55:29.781Z,70.00
2022-10-08T22:57:56.738Z,69.84
2022-10-08T23:00:23.655Z,69.94
2022-10-08T23:02:50.817Z,69.63
2022-10-08T23:05:17.854Z,69.57
2022-10-08T23:07:44.675Z,69.73
2022-10-08T23:10:11.496Z,69.52
2022-10-08T23:12:38.295Z,69.61
2022-10-08T23:15:05.524Z,69.61
2022-10-08T23:17:32.418Z,69.76
2022-10-08T23:19:59.277Z,69.85
2022-10-08T23:22:26.190Z,69.63
2022-10-08T23:24:53.078Z,69.54
2022-10-08T23:27:20.305Z,69.67
2022-10-08T23:29:47.310Z,69.41
2022-10-08T23:32:14.133Z,69.47
2022-10-08T23:34:41.029Z,69.36
2022-10-08T23:37:07.874Z,69.23
2022-10-08T23:39:34.730Z,69.12
2022-10-08T23:42:01.512Z,69.14
2022-10-08T23:44:28.327Z,69.16
2022-10-08T23:46:55.136Z,69.21
2022-10-08T23:49:21.873Z,69.10
2022-10-08T23:51:48.818Z,69.10
2022-10-08T23:54:15.597Z,69.07
2022-10-08T23:56:42.461Z,69.48
2022-10-08T23:59:09.505Z,69.37
